createdAt,value
2017-05-15T00:00:55.476Z,65.88
2017-05-15T00:02:05.828Z,65.78
2017-05-15T00:03:15.873Z,65.88
2017-05-15T00:04:26.385Z,65.88
2017-05-15T00:05:36.436Z,66.17
2017-05-15T00:06:46.477Z,65.88
2017-05-15T00:07:56.837Z,65.97
2017-05-15T00:09:06.875Z,66.07
2017-05-15T00:10:17.008Z,65.88
2017-05-15T00:11:27.355Z,65.78
2017-05-15T00:12:37.705Z,65.97
2017-05-15T00:13:48.053Z,66.07
2017-05-15T00:14:58.417Z,65.97
2017-05-15T00:16:08.877Z,65.78
2017-05-15T00:17:19.253Z,65.97
2017-05-15T00:18:29.297Z,65.97
2017-05-15T00:19:39.639Z,66.04
2017-05-15T00:20:49.988Z,66.04
2017-05-15T00:22:00.149Z,66.07
2017-05-15T00:23:10.409Z,65.84
2017-05-15T00:24:20.755Z,66.14
2017-05-15T00:25:31.103Z,65.75
2017-05-15T00:26:41.451Z,65.66
2017-05-15T00:27:51.897Z,65.75
2017-05-15T00:29:02.241Z,65.75
2017-05-15T00:30:12.582Z,65.75
2017-05-15T00:31:22.983Z,65.94
2017-05-15T00:32:33.359Z,65.75
2017-05-15T00:33:43.196Z,65.75
2017-05-15T00:34:53.243Z,65.75
2017-05-15T00:36:03.586Z,66.04
2017-05-15T00:37:13.946Z,65.66
2017-05-15T00:38:24.312Z,65.56
2017-05-15T00:39:34.776Z,65.66
2017-05-15T00:40:45.139Z,65.75
2017-05-15T00:41:55.195Z,65.84
2017-05-15T00:43:05.595Z,65.4
2017-05-15T00:44:15.966Z,65.59
2017-05-15T00:45:26.122Z,65.4
2017-05-15T00:46:36.472Z,65.69
2017-05-15T00:47:46.507Z,65.69
2017-05-15T00:48:56.869Z,65.5
2017-05-15T00:50:06.913Z,65.59
2017-05-15T00:51:17.057Z,65.88
2017-05-15T00:52:27.094Z,65.97
2017-05-15T00:53:37.437Z,65.78
2017-05-15T00:54:47.806Z,65.78
2017-05-15T00:55:58.183Z,65.97
2017-05-15T00:57:08.651Z,65.97
2017-05-15T00:58:18.672Z,65.66
2017-05-15T00:59:29.054Z,66.04
2017-05-15T01:00:39.399Z,65.75
2017-05-15T01:01:49.743Z,65.88
2017-05-15T01:02:59.919Z,65.84
2017-05-15T01:04:10.272Z,65.66
2017-05-15T01:05:20.627Z,65.75
2017-05-15T01:06:30.975Z,65.75
2017-05-15T01:07:41.339Z,65.66
2017-05-15T01:08:51.535Z,65.94
2017-05-15T01:10:01.881Z,65.75
2017-05-15T01:11:11.925Z,66.14
2017-05-15T01:12:22.288Z,66.14
2017-05-15T01:13:32.021Z,66.04
2017-05-15T01:14:42.230Z,65.94
2017-05-15T01:15:52.270Z,65.94
2017-05-15T01:17:02.632Z,65.94
2017-05-15T01:18:12.671Z,66.04
2017-05-15T01:19:23.040Z,65.84
2017-05-15T01:20:33.488Z,65.94
2017-05-15T01:21:43.836Z,65.94
2017-05-15T01:22:53.568Z,65.94
2017-05-15T01:24:03.910Z,66.52
2017-05-15T01:25:13.323Z,66.52
2017-05-15T01:26:23.831Z,66.71
2017-05-15T01:27:34.201Z,66.42
2017-05-15T01:28:44.554Z,66.04
2017-05-15T01:29:54.590Z,66.71
2017-05-15T01:31:04.943Z,66.58
2017-05-15T01:32:15.430Z,66.71
2017-05-15T01:33:25.798Z,66.61
2017-05-15T01:34:35.858Z,66.68
2017-05-15T01:35:46.202Z,66.68
2017-05-15T01:36:56.555Z,66.68
2017-05-15T01:38:06.381Z,65.91
2017-05-15T01:39:16.749Z,66.58
2017-05-15T01:40:26.780Z,66.39
2017-05-15T01:41:36.510Z,66.49
2017-05-15T01:42:46.240Z,66.39
2017-05-15T01:43:56.435Z,66.39
2017-05-15T01:45:06.811Z,66.39
2017-05-15T01:46:17.211Z,66.39
2017-05-15T01:47:27.562Z,66.39
2017-05-15T01:48:37.284Z,65.97
2017-05-15T01:49:47.826Z,66.1
2017-05-15T01:50:58.181Z,66.16
2017-05-15T01:52:08.563Z,66.26
2017-05-15T01:53:18.923Z,66.26
2017-05-15T01:54:29.276Z,65.88
2017-05-15T01:55:39.728Z,65.88
2017-05-15T01:56:50.073Z,66.16
2017-05-15T01:57:59.812Z,65.88
2017-05-15T01:59:09.852Z,66.26
2017-05-15T02:00:20.197Z,66.26
2017-05-15T02:01:30.346Z,66.16
2017-05-15T02:02:40.695Z,66.07
2017-05-15T02:03:51.053Z,66.16
2017-05-15T02:05:01.412Z,65.88
2017-05-15T02:06:11.779Z,66.36
2017-05-15T02:07:21.925Z,66.46
2017-05-15T02:08:32.291Z,66.46
2017-05-15T02:09:42.639Z,66.46
2017-05-15T02:10:52.984Z,66.55
2017-05-15T02:12:03.027Z,66.55
2017-05-15T02:13:12.860Z,65.88
2017-05-15T02:14:22.594Z,66.07
2017-05-15T02:15:32.632Z,66.16
2017-05-15T02:16:42.667Z,65.78
2017-05-15T02:17:52.700Z,65.97
2017-05-15T02:19:02.844Z,65.97
2017-05-15T02:20:12.888Z,65.88
2017-05-15T02:21:23.231Z,66.07
2017-05-15T02:22:32.969Z,65.97
2017-05-15T02:23:43.339Z,65.88
2017-05-15T02:24:53.497Z,65.88
2017-05-15T02:26:03.843Z,65.88
2017-05-15T02:27:13.880Z,66.07
2017-05-15T02:28:23.930Z,65.78
2017-05-15T02:29:34.302Z,65.97
2017-05-15T02:30:44.756Z,66.64
2017-05-15T02:31:54.798Z,65.88
2017-05-15T02:33:05.152Z,65.97
2017-05-15T02:34:15.512Z,66.64
2017-05-15T02:35:25.560Z,65.97
2017-05-15T02:36:35.695Z,65.97
2017-05-15T02:37:45.734Z,66.64
2017-05-15T02:38:55.780Z,66.64
2017-05-15T02:40:05.815Z,66.55
2017-05-15T02:41:16.159Z,66.55
2017-05-15T02:42:26.656Z,66.36
2017-05-15T02:43:36.707Z,66.36
2017-05-15T02:44:47.049Z,66.46
2017-05-15T02:45:57.094Z,66.46
2017-05-15T02:47:07.456Z,66.46
2017-05-15T02:48:17.923Z,65.97
2017-05-15T02:49:27.965Z,66.16
2017-05-15T02:50:38.314Z,66.07
2017-05-15T02:51:48.724Z,66.26
2017-05-15T02:52:59.070Z,66.07
2017-05-15T02:54:08.943Z,66.07
2017-05-15T02:55:19.294Z,66.16
2017-05-15T02:56:29.033Z,66.07
2017-05-15T02:57:39.073Z,66.07
2017-05-15T02:58:49.434Z,66.46
2017-05-15T02:59:59.573Z,66.46
2017-05-15T03:01:09.917Z,66.55
2017-05-15T03:33:14.761Z,63.03
2017-05-15T03:34:25.109Z,63.42
2017-05-15T03:35:35.636Z,64.28
2017-05-15T03:36:45.976Z,65.05
2017-05-15T03:37:56.329Z,65.42
2017-05-15T03:39:06.781Z,66.29
2017-05-15T03:40:16.494Z,66.61
2017-05-15T03:41:26.843Z,66.61
2017-05-15T03:42:37.199Z,66.8
2017-05-15T03:43:47.233Z,66.22
2017-05-15T03:44:57.744Z,66.55
2017-05-15T03:46:08.090Z,66.93
2017-05-15T03:47:18.135Z,67.22
2017-05-15T03:48:28.486Z,66.19
2017-05-15T03:49:38.821Z,66.67
2017-05-15T03:50:49.330Z,66.77
2017-05-15T03:51:59.685Z,66.8
2017-05-15T03:53:10.028Z,66.42
2017-05-15T03:54:20.064Z,66.42
2017-05-15T03:55:30.410Z,66.71
2017-05-15T03:56:40.870Z,66.46
2017-05-15T03:57:50.899Z,66.64
2017-05-15T03:59:01.261Z,65.88
2017-05-15T04:00:11.302Z,66.16
2017-05-15T04:01:21.356Z,66.07
2017-05-15T04:02:31.817Z,66.36
2017-05-15T04:03:42.168Z,66.3
2017-05-15T04:04:51.902Z,65.91
2017-05-15T04:06:02.265Z,66.1
2017-05-15T04:07:12.602Z,65.72
2017-05-15T04:08:22.741Z,65.81
2017-05-15T04:09:33.096Z,65.72
2017-05-15T04:10:43.142Z,65.72
2017-05-15T04:11:53.507Z,65.91
2017-05-15T04:13:03.865Z,65.81
2017-05-15T04:14:14.018Z,65.75
2017-05-15T04:15:24.380Z,65.75
2017-05-15T04:16:34.759Z,65.75
2017-05-15T04:17:44.809Z,66.04
2017-05-15T04:18:55.177Z,65.94
2017-05-15T04:20:05.615Z,65.66
2017-05-15T04:21:15.999Z,66.04
2017-05-15T04:22:26.339Z,65.94
2017-05-15T04:23:36.753Z,66.04
2017-05-15T04:24:46.784Z,65.94
2017-05-15T04:25:57.284Z,66.04
2017-05-15T04:27:07.641Z,65.94
2017-05-15T04:28:18.020Z,65.94
2017-05-15T04:29:28.071Z,65.75
2017-05-15T04:30:38.434Z,65.84
2017-05-15T04:31:48.935Z,65.66
2017-05-15T04:32:59.296Z,66.07
2017-05-15T04:34:09.697Z,65.66
2017-05-15T04:35:20.079Z,66.07
2017-05-15T04:36:30.411Z,65.66
2017-05-15T04:37:40.557Z,65.69
2017-05-15T04:38:50.915Z,66.07
2017-05-15T04:40:01.301Z,65.88
2017-05-15T04:41:11.653Z,65.97
2017-05-15T04:42:21.992Z,66.07
2017-05-15T04:43:32.454Z,65.78
2017-05-15T04:44:42.819Z,65.5
2017-05-15T04:45:53.190Z,66.07
2017-05-15T04:47:03.239Z,65.78
2017-05-15T04:48:13.622Z,65.78
2017-05-15T04:49:24.132Z,65.59
2017-05-15T04:50:34.484Z,65.69
2017-05-15T04:51:44.846Z,65.88
2017-05-15T04:52:55.203Z,65.4
2017-05-15T04:54:05.552Z,65.88
2017-05-15T04:55:15.699Z,65.69
2017-05-15T04:56:25.933Z,65.69
2017-05-15T04:57:35.968Z,65.5
2017-05-15T04:58:46.316Z,65.4
2017-05-15T04:59:56.665Z,65.4
2017-05-15T05:01:07.113Z,65.81
2017-05-15T05:02:17.455Z,66.07
2017-05-15T05:03:27.497Z,65.88
2017-05-15T05:04:37.852Z,65.4
2017-05-15T05:05:48.201Z,65.4
2017-05-15T05:06:58.664Z,65.43
2017-05-15T05:08:09.009Z,66.1
2017-05-15T05:09:19.077Z,65.91
2017-05-15T05:10:29.115Z,66.1
2017-05-15T05:11:39.145Z,65.63
2017-05-15T05:12:49.657Z,65.91
2017-05-15T05:14:00.008Z,65.63
2017-05-15T05:15:10.055Z,65.63
2017-05-15T05:16:20.397Z,65.72
2017-05-15T05:17:30.748Z,65.72
2017-05-15T05:18:41.205Z,65.81
2017-05-15T05:19:51.566Z,65.81
2017-05-15T05:21:01.944Z,65.72
2017-05-15T05:22:11.997Z,65.72
2017-05-15T05:23:22.354Z,65.91
2017-05-15T05:24:32.806Z,65.91
2017-05-15T05:25:43.146Z,66.1
2017-05-15T05:26:53.483Z,66.01
2017-05-15T05:28:03.206Z,65.81
2017-05-15T05:29:13.553Z,65.81
2017-05-15T05:30:24.002Z,66.01
2017-05-15T05:31:34.278Z,65.81
2017-05-15T05:32:44.619Z,65.72
2017-05-15T05:33:55.004Z,65.91
2017-05-15T05:35:05.364Z,65.91
2017-05-15T05:36:15.878Z,65.72
2017-05-15T05:37:26.259Z,65.63
2017-05-15T05:38:36.605Z,65.56
2017-05-15T05:39:46.348Z,65.75
2017-05-15T05:40:56.398Z,65.37
2017-05-15T05:42:06.853Z,65.27
2017-05-15T05:43:16.882Z,65.27
2017-05-15T05:44:27.230Z,65.56
2017-05-15T05:45:37.594Z,65.56
2017-05-15T05:46:47.627Z,65.27
2017-05-15T05:47:58.190Z,65.27
2017-05-15T05:49:08.551Z,65.59
2017-05-15T05:50:18.882Z,65.4
2017-05-15T05:51:28.916Z,65.3
2017-05-15T05:52:39.266Z,65.59
2017-05-15T05:53:49.725Z,65.69
2017-05-15T05:54:59.772Z,65.3
2017-05-15T05:56:10.022Z,65.4
2017-05-15T05:57:20.379Z,65.59
2017-05-15T05:58:30.745Z,65.3
2017-05-15T05:59:40.884Z,65.69
2017-05-15T06:00:51.233Z,65.3
2017-05-15T06:02:01.292Z,65.69
2017-05-15T06:03:11.643Z,65.3
2017-05-15T06:04:21.689Z,65.59
2017-05-15T06:05:31.820Z,65.5
2017-05-15T06:06:42.176Z,65.4
2017-05-15T06:07:52.515Z,65.69
2017-05-15T06:09:02.866Z,65.4
2017-05-15T06:10:13.212Z,65.2
2017-05-15T06:11:23.366Z,65.11
2017-05-15T06:12:33.402Z,65.05
2017-05-15T06:13:43.439Z,64.82
2017-05-15T06:14:53.170Z,64.73
2017-05-15T06:16:03.721Z,64.82
2017-05-15T06:17:13.863Z,65.14
2017-05-15T06:18:24.210Z,64.47
2017-05-15T06:19:34.248Z,64.66
2017-05-15T06:20:44.609Z,64.95
2017-05-15T06:21:54.641Z,64.66
2017-05-15T06:23:04.159Z,64.95
2017-05-15T06:24:14.200Z,64.66
2017-05-15T06:25:24.557Z,64.69
2017-05-15T06:26:34.587Z,64.5
2017-05-15T06:27:44.676Z,64.4
2017-05-15T06:28:55.124Z,64.31
2017-05-15T06:30:05.484Z,64.11
2017-05-15T06:31:15.831Z,63.85
2017-05-15T06:32:26.204Z,64.15
2017-05-15T06:33:36.249Z,64.34
2017-05-15T06:34:46.380Z,63.79
2017-05-15T06:35:56.421Z,63.79
2017-05-15T06:37:06.783Z,63.79
2017-05-15T06:38:17.132Z,63.31
2017-05-15T06:39:27.181Z,63.73
2017-05-15T06:40:37.309Z,63.73
2017-05-15T06:41:47.653Z,63.92
2017-05-15T06:42:58.064Z,63.92
2017-05-15T06:44:08.425Z,63.73
2017-05-15T06:45:18.773Z,63.85
2017-05-15T06:46:29.228Z,63.85
2017-05-15T06:47:39.573Z,63.76
2017-05-15T06:48:49.936Z,63.76
2017-05-15T06:50:00.281Z,63.76
2017-05-15T06:51:10.636Z,63.5
2017-05-15T06:52:21.103Z,63.5
2017-05-15T06:53:31.457Z,63.5
2017-05-15T06:54:41.812Z,63.6
2017-05-15T06:55:51.863Z,63.82
2017-05-15T06:57:01.904Z,62.95
2017-05-15T06:58:12.092Z,63.43
2017-05-15T06:59:22.494Z,63.43
2017-05-15T07:00:32.850Z,62.88
2017-05-15T07:01:43.203Z,62.59
2017-05-15T07:02:53.579Z,62.88
2017-05-15T07:04:04.080Z,62.92
2017-05-15T07:05:14.412Z,63.01
2017-05-15T07:06:24.449Z,62.53
2017-05-15T07:07:34.865Z,62.56
2017-05-15T07:08:44.912Z,62.56
2017-05-15T07:09:55.384Z,62.66
2017-05-15T07:11:05.732Z,62.75
2017-05-15T07:12:15.763Z,62.59
2017-05-15T07:13:26.111Z,62.56
2017-05-15T07:14:36.461Z,62.4
2017-05-15T07:15:46.921Z,62.59
2017-05-15T07:16:57.277Z,62.69
2017-05-15T07:18:07.649Z,62.59
2017-05-15T07:19:17.705Z,63.17
2017-05-15T07:20:28.070Z,62.79
2017-05-15T07:21:38.528Z,62.59
2017-05-15T07:22:48.877Z,62.79
2017-05-15T07:23:59.245Z,62.98
2017-05-15T07:25:09.606Z,62.49
2017-05-15T07:26:19.959Z,62.88
2017-05-15T07:27:30.151Z,62.98
2017-05-15T07:28:40.517Z,63.07
2017-05-15T07:29:50.872Z,63.07
2017-05-15T07:31:01.223Z,62.72
2017-05-15T07:32:11.579Z,62.62
2017-05-15T07:33:21.766Z,62.82
2017-05-15T07:34:31.812Z,62.43
2017-05-15T07:35:42.167Z,62.43
2017-05-15T07:36:52.516Z,62.33
2017-05-15T07:38:02.561Z,62.33
2017-05-15T07:39:13.029Z,62.13
2017-05-15T07:40:23.381Z,62.52
2017-05-15T07:41:33.729Z,62.91
2017-05-15T07:42:44.079Z,62.82
2017-05-15T07:43:54.439Z,62.82
2017-05-15T07:45:04.278Z,62.52
2017-05-15T07:46:14.639Z,62.62
2017-05-15T07:47:24.991Z,62.62
2017-05-15T07:48:35.053Z,62.52
2017-05-15T07:49:45.131Z,62.33
2017-05-15T07:50:55.582Z,62.72
2017-05-15T07:52:05.621Z,62.62
2017-05-15T07:53:15.671Z,62.43
2017-05-15T07:54:26.046Z,62.43
2017-05-15T07:55:36.392Z,62.62
2017-05-15T07:56:46.541Z,62.62
2017-05-15T07:57:56.903Z,62.82
2017-05-15T07:59:07.247Z,62.75
2017-05-15T08:00:17.619Z,62.72
2017-05-15T08:01:27.337Z,62.52
2017-05-15T08:02:37.788Z,61.94
2017-05-15T08:03:48.147Z,62.36
2017-05-15T08:04:58.208Z,62.07
2017-05-15T08:06:07.938Z,62.26
2017-05-15T08:07:18.314Z,61.71
2017-05-15T08:08:28.158Z,61.71
2017-05-15T08:09:38.533Z,61.42
2017-05-15T08:10:48.571Z,61.71
2017-05-15T08:11:58.610Z,61.52
2017-05-15T08:13:08.955Z,61.52
2017-05-15T08:14:19.437Z,61.04
2017-05-15T08:15:29.802Z,61.55
2017-05-15T08:16:39.835Z,61.74
2017-05-15T08:17:49.558Z,61.42
2017-05-15T08:18:59.595Z,61.45
2017-05-15T08:20:09.747Z,60.97
2017-05-15T08:21:19.834Z,61.07
2017-05-15T08:22:30.228Z,60.97
2017-05-15T08:23:39.655Z,60.97
2017-05-15T08:24:50.013Z,61.25
2017-05-15T08:26:00.465Z,61.45
2017-05-15T08:27:10.817Z,61.74
2017-05-15T08:28:21.173Z,61.55
2017-05-15T08:29:30.905Z,61.74
2017-05-15T08:30:41.265Z,61.58
2017-05-15T08:31:51.919Z,61.09
2017-05-15T08:33:02.001Z,61.09
2017-05-15T08:34:12.364Z,61.29
2017-05-15T08:35:22.713Z,61.41
2017-05-15T08:36:33.063Z,61.32
2017-05-15T08:37:43.534Z,61.32
2017-05-15T08:38:53.884Z,61.12
2017-05-15T08:40:04.254Z,61.51
2017-05-15T08:41:14.610Z,61.51
2017-05-15T08:42:24.972Z,61.41
2017-05-15T08:43:35.423Z,61.12
2017-05-15T08:44:45.470Z,61.32
2017-05-15T08:45:55.516Z,61.41
2017-05-15T08:47:05.562Z,61.41
2017-05-15T08:48:15.920Z,61.51
2017-05-15T08:49:26.394Z,61.54
2017-05-15T08:50:36.755Z,61.32
2017-05-15T08:51:47.093Z,61.8
2017-05-15T08:52:57.473Z,61.02
2017-05-15T08:54:07.507Z,61.54
2017-05-15T08:55:17.965Z,61.35
2017-05-15T08:56:28.322Z,60.96
2017-05-15T08:57:38.682Z,61.08
2017-05-15T08:58:49.077Z,60.79
2017-05-15T08:59:59.488Z,60.89
2017-05-15T09:01:09.974Z,60.7
2017-05-15T09:02:20.350Z,61.11
2017-05-15T09:03:30.730Z,61.21
2017-05-15T09:04:41.091Z,61.11
2017-05-15T09:05:51.142Z,60.53
2017-05-15T09:07:01.283Z,60.63
2017-05-15T09:08:11.318Z,60.82
2017-05-15T09:09:21.362Z,60.56
2017-05-15T09:10:31.741Z,60.46
2017-05-15T09:11:41.818Z,60.56
2017-05-15T09:12:52.311Z,60.95
2017-05-15T09:14:02.364Z,60.75
2017-05-15T09:15:12.412Z,60.59
2017-05-15T09:16:22.773Z,61.15
2017-05-15T09:17:33.145Z,61.24
2017-05-15T09:18:43.615Z,61.05
2017-05-15T09:19:53.347Z,60.56
2017-05-15T09:21:03.389Z,60.46
2017-05-15T09:22:13.416Z,60.66
2017-05-15T09:23:23.780Z,60.78
2017-05-15T09:24:33.963Z,60.2
2017-05-15T09:25:44.323Z,60.2
2017-05-15T09:26:54.362Z,60.59
2017-05-15T09:28:04.409Z,60.59
2017-05-15T09:29:14.778Z,60.42
2017-05-15T09:30:25.243Z,59.84
2017-05-15T09:31:35.603Z,59.94
2017-05-15T09:32:45.968Z,59.97
2017-05-15T09:33:56.317Z,60.06
2017-05-15T09:35:06.699Z,60.06
2017-05-15T09:36:16.861Z,59.87
2017-05-15T09:37:27.242Z,60.29
2017-05-15T09:38:37.596Z,60.26
2017-05-15T09:39:47.639Z,60.19
2017-05-15T09:40:58.002Z,60.19
2017-05-15T09:42:08.157Z,60
2017-05-15T09:43:18.262Z,60
2017-05-15T09:44:28.658Z,59.9
2017-05-15T09:45:39.022Z,60.19
2017-05-15T09:46:49.362Z,60.1
2017-05-15T09:47:59.558Z,60.1
2017-05-15T09:49:09.815Z,59.8
2017-05-15T09:50:20.188Z,60.29
2017-05-15T09:51:30.560Z,60
2017-05-15T09:52:40.915Z,60.1
2017-05-15T09:53:51.372Z,60.68
2017-05-15T09:55:01.743Z,59.87
2017-05-15T09:56:12.101Z,59.8
2017-05-15T09:57:22.472Z,60
2017-05-15T09:58:32.845Z,60.1
2017-05-15T09:59:43.310Z,60.85
2017-05-15T10:00:53.352Z,60.85
2017-05-15T10:02:03.708Z,61.3
2017-05-15T10:03:14.326Z,61.3
2017-05-15T10:04:24.382Z,60.91
2017-05-15T10:05:34.597Z,59.94
2017-05-15T10:06:44.961Z,59.8
2017-05-15T10:07:55.323Z,59.51
2017-05-15T10:09:05.701Z,59.54
2017-05-15T10:10:16.057Z,59.54
2017-05-15T10:11:26.559Z,59.77
2017-05-15T10:12:36.924Z,59.67
2017-05-15T10:13:47.310Z,59.28
2017-05-15T10:14:57.675Z,59.47
2017-05-15T10:16:07.722Z,59.38
2017-05-15T10:17:18.188Z,59.96
2017-05-15T10:18:28.574Z,59.83
2017-05-15T10:19:38.628Z,60.03
2017-05-15T10:20:48.690Z,59.28
2017-05-15T10:21:59.056Z,59.57
2017-05-15T10:23:09.503Z,59.47
2017-05-15T10:24:19.863Z,59.5
2017-05-15T10:25:30.235Z,59.38
2017-05-15T10:26:40.595Z,59.59
2017-05-15T10:27:50.647Z,59.4
2017-05-15T10:29:01.173Z,59.59
2017-05-15T10:30:11.553Z,59.4
2017-05-15T10:31:21.636Z,59.77
2017-05-15T10:32:32.043Z,60.35
2017-05-15T10:33:42.100Z,59.96
2017-05-15T10:34:52.632Z,60.16
2017-05-15T10:36:03.021Z,60.25
2017-05-15T10:37:13.384Z,59.96
2017-05-15T10:38:23.758Z,60.13
2017-05-15T10:39:34.112Z,60.71
2017-05-15T10:40:44.565Z,61.4
2017-05-15T10:41:54.924Z,60.97
2017-05-15T10:43:04.971Z,61.33
2017-05-15T10:44:15.337Z,61.3
2017-05-15T10:45:25.381Z,61.76
2017-05-15T10:46:35.846Z,61.47
2017-05-15T10:47:45.913Z,61.01
2017-05-15T10:48:55.972Z,61.11
2017-05-15T10:50:06.034Z,60.42
2017-05-15T10:51:16.406Z,60.72
2017-05-15T10:52:26.880Z,60.36
2017-05-15T10:53:37.236Z,60.1
2017-05-15T10:54:47.598Z,60.29
2017-05-15T10:55:57.971Z,60
2017-05-15T10:57:08.346Z,60.39
2017-05-15T10:58:18.830Z,60.58
2017-05-15T10:59:28.891Z,60.88
2017-05-15T11:00:38.938Z,60.39
2017-05-15T11:01:48.991Z,61.17
2017-05-15T11:02:59.352Z,61.07
2017-05-15T11:04:09.817Z,61.17
2017-05-15T11:05:20.173Z,61.14
2017-05-15T11:06:30.524Z,60.94
2017-05-15T11:07:40.586Z,61.43
2017-05-15T11:08:50.635Z,61.14
2017-05-15T11:10:01.098Z,61.04
2017-05-15T11:11:11.460Z,60.97
2017-05-15T11:12:21.826Z,61.36
2017-05-15T11:13:32.185Z,60.78
2017-05-15T11:14:42.235Z,60.39
2017-05-15T11:15:52.387Z,60.03
2017-05-15T11:17:02.751Z,60.03
2017-05-15T11:18:12.798Z,60.16
2017-05-15T11:19:22.855Z,60.25
2017-05-15T11:20:33.219Z,59.18
2017-05-15T11:21:43.986Z,59.79
2017-05-15T11:22:54.394Z,59.59
2017-05-15T11:24:04.439Z,59.2
2017-05-15T11:25:14.501Z,60.38
2017-05-15T11:26:24.842Z,60.08
2017-05-15T11:27:35.049Z,60.28
2017-05-15T11:28:45.411Z,60.06
2017-05-15T11:29:55.793Z,60.55
2017-05-15T11:31:05.535Z,60.06
2017-05-15T11:32:15.581Z,60.45
2017-05-15T11:33:26.034Z,60.94
2017-05-15T11:34:36.411Z,60.91
2017-05-15T11:35:46.460Z,60.91
2017-05-15T11:36:56.840Z,61.4
2017-05-15T11:38:07.216Z,60.91
2017-05-15T11:39:17.372Z,61.36
2017-05-15T11:40:27.724Z,60.68
2017-05-15T11:41:37.781Z,60.91
2017-05-15T11:42:48.139Z,60.52
2017-05-15T11:43:57.870Z,60.16
2017-05-15T11:45:08.354Z,60.35
2017-05-15T11:46:18.732Z,59.89
2017-05-15T11:47:29.155Z,59.4
2017-05-15T11:48:39.516Z,60.08
2017-05-15T11:49:49.928Z,60.06
2017-05-15T11:51:00.409Z,60.84
2017-05-15T11:52:10.782Z,61.49
2017-05-15T11:53:21.150Z,61
2017-05-15T11:54:31.520Z,61.66
2017-05-15T11:55:41.896Z,61.27
2017-05-15T11:56:51.741Z,61.89
2017-05-15T11:58:02.089Z,62.44
2017-05-15T11:59:12.143Z,62.44
2017-05-15T12:00:22.508Z,62.6
2017-05-15T12:01:32.558Z,61.73
2017-05-15T12:02:42.726Z,61.83
2017-05-15T12:03:52.759Z,61.93
2017-05-15T12:05:03.202Z,61.15
2017-05-15T12:06:13.568Z,61.54
2017-05-15T12:07:23.932Z,60.95
2017-05-15T12:08:34.395Z,60.75
2017-05-15T12:09:44.759Z,60.98
2017-05-15T12:10:55.135Z,60.75
2017-05-15T12:12:05.182Z,60.98
2017-05-15T12:13:15.251Z,61.27
2017-05-15T12:14:25.720Z,60.85
2017-05-15T12:15:36.099Z,61.15
2017-05-15T12:16:46.479Z,60.59
2017-05-15T12:17:56.511Z,60.88
2017-05-15T12:19:06.868Z,60.69
2017-05-15T12:20:17.021Z,60.69
2017-05-15T12:21:27.386Z,60.78
2017-05-15T12:22:37.428Z,60.69
2017-05-15T12:23:47.802Z,60.49
2017-05-15T12:24:58.176Z,60.78
2017-05-15T12:26:08.333Z,61.11
2017-05-15T12:27:18.080Z,60.82
2017-05-15T12:28:28.138Z,60.03
2017-05-15T12:29:38.188Z,60.42
2017-05-15T12:30:48.564Z,59.74
2017-05-15T12:31:58.705Z,60.06
2017-05-15T12:33:09.061Z,59.97
2017-05-15T12:34:19.419Z,59.97
2017-05-15T12:35:29.470Z,60
2017-05-15T12:36:39.840Z,60.1
2017-05-15T12:37:50.355Z,60
2017-05-15T12:39:00.726Z,59.64
2017-05-15T12:40:11.098Z,59.83
2017-05-15T12:41:21.136Z,59.64
2017-05-15T12:42:31.184Z,59.64
2017-05-15T12:43:41.645Z,59.83
2017-05-15T12:44:52.012Z,59.64
2017-05-15T12:46:02.426Z,59.67
2017-05-15T12:47:12.789Z,59.57
2017-05-15T12:48:22.899Z,59.67
2017-05-15T12:49:33.038Z,59.57
2017-05-15T12:50:43.403Z,59.67
2017-05-15T12:51:53.771Z,59.57
2017-05-15T12:53:04.134Z,59.38
2017-05-15T12:54:14.486Z,59.38
2017-05-15T12:55:25.013Z,59.57
2017-05-15T12:56:35.368Z,59.67
2017-05-15T12:57:45.734Z,59.57
2017-05-15T12:58:56.108Z,59.77
2017-05-15T13:00:06.472Z,59.47
2017-05-15T13:01:16.945Z,59.67
2017-05-15T13:02:27.304Z,59.86
2017-05-15T13:03:37.044Z,60.25
2017-05-15T13:04:47.425Z,59.77
2017-05-15T13:05:57.804Z,59.77
2017-05-15T13:07:08.285Z,60.25
2017-05-15T13:08:18.661Z,60.35
2017-05-15T13:09:29.036Z,60.06
2017-05-15T13:10:39.409Z,60.03
2017-05-15T13:11:49.771Z,60.35
2017-05-15T13:13:00.234Z,59.96
2017-05-15T13:14:10.591Z,60.25
2017-05-15T13:15:20.979Z,59.86
2017-05-15T13:16:31.041Z,60.32
2017-05-15T13:17:41.404Z,59.96
2017-05-15T13:18:51.899Z,59.86
2017-05-15T13:20:02.255Z,59.47
2017-05-15T13:21:12.611Z,59.86
2017-05-15T13:22:22.676Z,59.69
2017-05-15T13:23:33.041Z,59.47
2017-05-15T13:24:43.558Z,59.28
2017-05-15T13:25:53.325Z,59.89
2017-05-15T13:27:03.704Z,60.18
2017-05-15T13:28:14.077Z,59.69
2017-05-15T13:29:24.444Z,59.89
2017-05-15T13:30:34.299Z,59.79
2017-05-15T13:31:44.659Z,59.69
2017-05-15T13:32:55.030Z,59.59
2017-05-15T13:34:05.090Z,59.89
2017-05-15T13:35:15.448Z,59.69
2017-05-15T13:36:25.898Z,59.69
2017-05-15T13:37:36.257Z,59.5
2017-05-15T13:38:46.622Z,59.72
2017-05-15T13:39:56.978Z,59.69
2017-05-15T13:41:07.038Z,59.72
2017-05-15T13:42:17.493Z,59.72
2017-05-15T13:43:27.875Z,59.63
2017-05-15T13:44:38.248Z,59.53
2017-05-15T13:45:48.614Z,59.63
2017-05-15T13:46:58.712Z,59.72
2017-05-15T13:48:09.199Z,59.63
2017-05-15T13:49:19.261Z,59.72
2017-05-15T13:50:29.342Z,59.63
2017-05-15T13:51:39.701Z,60.31
2017-05-15T13:52:50.070Z,60.11
2017-05-15T13:54:00.738Z,60.47
2017-05-15T13:55:11.092Z,60.86
2017-05-15T13:56:21.457Z,61.43
2017-05-15T13:57:31.821Z,61.13
2017-05-15T13:58:42.201Z,61.1
2017-05-15T13:59:52.679Z,61.76
2017-05-15T14:01:03.077Z,62.02
2017-05-15T14:02:13.434Z,63.15
2017-05-15T14:03:23.800Z,63.32
2017-05-15T14:04:34.185Z,63.94
2017-05-15T14:05:44.330Z,64.23
2017-05-15T14:06:54.390Z,64.29
2017-05-15T14:08:04.812Z,64.36
2017-05-15T14:09:14.855Z,64.91
2017-05-15T14:10:24.962Z,64.95
2017-05-15T14:11:35.427Z,64.92
2017-05-15T14:12:45.478Z,65.08
2017-05-15T14:13:55.840Z,65.43
2017-05-15T14:15:06.192Z,65.34
2017-05-15T14:16:16.566Z,65.11
2017-05-15T14:17:26.726Z,65.17
2017-05-15T14:18:36.776Z,65.14
2017-05-15T14:19:47.133Z,65.63
2017-05-15T14:20:56.874Z,66.05
2017-05-15T14:22:07.229Z,66.75
2017-05-15T14:23:17.697Z,67.36
2017-05-15T14:24:28.068Z,66.94
2017-05-15T14:25:38.454Z,67.46
2017-05-15T14:26:48.815Z,67.52
2017-05-15T14:27:59.206Z,67.29
2017-05-15T14:29:09.659Z,67.65
2017-05-15T14:30:19.378Z,67.07
2017-05-15T14:31:29.747Z,66.3
2017-05-15T14:32:39.784Z,65.91
2017-05-15T14:33:50.151Z,65.69
2017-05-15T14:35:00.609Z,65.69
2017-05-15T14:36:10.985Z,65.4
2017-05-15T14:37:21.346Z,64.92
2017-05-15T14:38:31.389Z,64.63
2017-05-15T14:39:41.446Z,64.53
2017-05-15T14:40:51.916Z,64.63
2017-05-15T14:42:01.961Z,64.37
2017-05-15T14:43:12.009Z,64.18
2017-05-15T14:44:22.036Z,64.47
2017-05-15T14:45:32.390Z,63.99
2017-05-15T14:46:42.841Z,63.6
2017-05-15T14:47:52.908Z,63.41
2017-05-15T14:49:02.958Z,63.6
2017-05-15T14:50:13.322Z,63.44
2017-05-15T14:51:23.692Z,63.54
2017-05-15T14:52:34.151Z,63.64
2017-05-15T14:53:44.567Z,63.54
2017-05-15T14:54:54.924Z,63.28
2017-05-15T14:56:04.650Z,63.38
2017-05-15T14:57:15.023Z,62.7
2017-05-15T14:58:25.558Z,62.9
2017-05-15T14:59:35.897Z,62.35
2017-05-15T15:00:46.313Z,62.63
2017-05-15T15:01:56.346Z,62.28
2017-05-15T15:03:06.706Z,62.57
2017-05-15T15:04:16.552Z,61.83
2017-05-15T15:05:26.911Z,61.77
2017-05-15T15:06:37.255Z,61.38
2017-05-15T15:07:47.298Z,61.22
2017-05-15T15:08:57.024Z,60.96
2017-05-15T15:10:06.866Z,61.54
2017-05-15T15:11:16.918Z,60.89
2017-05-15T15:12:26.971Z,61.18
2017-05-15T15:13:37.026Z,60.53
2017-05-15T15:14:47.389Z,60.14
2017-05-15T15:15:57.862Z,60.95
2017-05-15T15:17:07.915Z,60.59
2017-05-15T15:18:18.289Z,60.88
2017-05-15T15:19:28.645Z,60.82
2017-05-15T15:20:39.008Z,60.36
2017-05-15T15:21:49.469Z,60.68
2017-05-15T15:22:59.879Z,60.49
2017-05-15T15:24:09.923Z,60.58
2017-05-15T15:25:20.293Z,60.91
2017-05-15T15:26:30.662Z,60.71
2017-05-15T15:27:40.512Z,60.78
2017-05-15T15:28:50.876Z,61.36
2017-05-15T15:30:00.612Z,60.58
2017-05-15T15:31:10.975Z,61.39
2017-05-15T15:32:21.349Z,61
2017-05-15T15:33:31.515Z,61.68
2017-05-15T15:34:41.874Z,61.1
2017-05-15T15:35:51.910Z,61.58
2017-05-15T15:37:02.300Z,61.29
2017-05-15T15:38:12.672Z,61.78
2017-05-15T15:39:23.169Z,61.58